sensor_id;sensor_type;location;lat;lon;timestamp;P1;durP1;ratioP1;P2;durP2;ratioP2
61017;SDS011;48171;51.550;5.434;2023-05-27T00:00:53;24.13;;;6.07;;
61017;SDS011;48171;51.550;5.434;2023-05-27T00:03:18;28.40;;;7.18;;
61017;SDS011;48171;51.550;5.434;2023-05-27T00:05:43;26.35;;;6.55;;
61017;SDS011;48171;51.550;5.434;2023-05-27T00:08:08;26.98;;;6.70;;
61017;SDS011;48171;51.550;5.434;2023-05-27T00:10:34;23.25;;;6.35;;
61017;SDS011;48171;51.550;5.434;2023-05-27T00:12:59;26.70;;;7.00;;
61017;SDS011;48171;51.550;5.434;2023-05-27T00:15:25;20.58;;;6.70;;
61017;SDS011;48171;51.550;5.434;2023-05-27T00:17:51;21.65;;;6.03;;
61017;SDS011;48171;51.550;5.434;2023-05-27T00:20:17;28.70;;;7.00;;
61017;SDS011;48171;51.550;5.434;2023-05-27T00:22:42;30.08;;;6.43;;
61017;SDS011;48171;51.550;5.434;2023-05-27T00:25:07;21.05;;;6.65;;
61017;SDS011;48171;51.550;5.434;2023-05-27T00:27:33;21.42;;;6.07;;
61017;SDS011;48171;51.550;5.434;2023-05-27T00:29:58;23.30;;;6.53;;
61017;SDS011;48171;51.550;5.434;2023-05-27T00:32:24;23.42;;;6.53;;
61017;SDS011;48171;51.550;5.434;2023-05-27T00:34:49;21.85;;;6.65;;
61017;SDS011;48171;51.550;5.434;2023-05-27T00:37:14;24.20;;;6.80;;
61017;SDS011;48171;51.550;5.434;2023-05-27T00:39:40;22.90;;;6.22;;
61017;SDS011;48171;51.550;5.434;2023-05-27T00:42:05;24.80;;;6.35;;
61017;SDS011;48171;51.550;5.434;2023-05-27T00:44:32;23.80;;;6.25;;
61017;SDS011;48171;51.550;5.434;2023-05-27T00:46:57;22.73;;;6.40;;
61017;SDS011;48171;51.550;5.434;2023-05-27T00:49:22;27.67;;;7.05;;
61017;SDS011;48171;51.550;5.434;2023-05-27T00:51:50;25.70;;;6.10;;
61017;SDS011;48171;51.550;5.434;2023-05-27T00:54:16;26.15;;;6.47;;
61017;SDS011;48171;51.550;5.434;2023-05-27T00:56:41;20.80;;;5.75;;
61017;SDS011;48171;51.550;5.434;2023-05-27T00:59:07;23.88;;;6.18;;
61017;SDS011;48171;51.550;5.434;2023-05-27T01:01:32;29.52;;;6.22;;
61017;SDS011;48171;51.550;5.434;2023-05-27T01:04:01;16.70;;;5.82;;
61017;SDS011;48171;51.550;5.434;2023-05-27T01:14:51;21.75;;;5.30;;
61017;SDS011;48171;51.550;5.434;2023-05-27T01:17:19;19.20;;;5.38;;
61017;SDS011;48171;51.550;5.434;2023-05-27T01:19:45;17.35;;;5.25;;
61017;SDS011;48171;51.550;5.434;2023-05-27T01:22:13;19.13;;;5.35;;
61017;SDS011;48171;51.550;5.434;2023-05-27T01:24:39;26.48;;;5.80;;
61017;SDS011;48171;51.550;5.434;2023-05-27T01:27:06;31.13;;;5.95;;
61017;SDS011;48171;51.550;5.434;2023-05-27T01:29:33;26.13;;;5.82;;
61017;SDS011;48171;51.550;5.434;2023-05-27T01:37:33;22.15;;;5.18;;
61017;SDS011;48171;51.550;5.434;2023-05-27T01:40:02;25.10;;;5.57;;
61017;SDS011;48171;51.550;5.434;2023-05-27T01:42:30;23.23;;;6.03;;
61017;SDS011;48171;51.550;5.434;2023-05-27T01:44:57;26.38;;;6.07;;
61017;SDS011;48171;51.550;5.434;2023-05-27T01:47:25;29.17;;;6.30;;
61017;SDS011;48171;51.550;5.434;2023-05-27T01:49:50;28.77;;;5.72;;
61017;SDS011;48171;51.550;5.434;2023-05-27T01:52:16;26.42;;;6.32;;
61017;SDS011;48171;51.550;5.434;2023-05-27T01:54:41;23.70;;;5.88;;
61017;SDS011;48171;51.550;5.434;2023-05-27T01:57:06;26.75;;;6.25;;
61017;SDS011;48171;51.550;5.434;2023-05-27T01:59:32;28.10;;;6.78;;
61017;SDS011;48171;51.550;5.434;2023-05-27T02:01:57;22.92;;;6.57;;
61017;SDS011;48171;51.550;5.434;2023-05-27T02:04:22;26.77;;;5.90;;
61017;SDS011;48171;51.550;5.434;2023-05-27T02:06:47;26.02;;;6.25;;
61017;SDS011;48171;51.550;5.434;2023-05-27T02:09:13;24.55;;;6.10;;
61017;SDS011;48171;51.550;5.434;2023-05-27T02:11:38;30.27;;;6.05;;
61017;SDS011;48171;51.550;5.434;2023-05-27T02:14:03;30.10;;;6.53;;
61017;SDS011;48171;51.550;5.434;2023-05-27T02:16:30;29.90;;;6.78;;
61017;SDS011;48171;51.550;5.434;2023-05-27T02:18:58;26.80;;;6.30;;
61017;SDS011;48171;51.550;5.434;2023-05-27T02:21:26;30.42;;;6.18;;
61017;SDS011;48171;51.550;5.434;2023-05-27T02:23:51;22.10;;;6.78;;
61017;SDS011;48171;51.550;5.434;2023-05-27T02:26:16;27.92;;;6.75;;
61017;SDS011;48171;51.550;5.434;2023-05-27T02:28:42;29.27;;;6.68;;
61017;SDS011;48171;51.550;5.434;2023-05-27T02:31:07;30.27;;;6.70;;
61017;SDS011;48171;51.550;5.434;2023-05-27T02:33:33;30.75;;;7.07;;
61017;SDS011;48171;51.550;5.434;2023-05-27T02:35:58;20.13;;;6.15;;
61017;SDS011;48171;51.550;5.434;2023-05-27T02:38:24;26.85;;;6.30;;
61017;SDS011;48171;51.550;5.434;2023-05-27T02:40:49;34.22;;;6.10;;
61017;SDS011;48171;51.550;5.434;2023-05-27T02:43:14;27.13;;;6.60;;
61017;SDS011;48171;51.550;5.434;2023-05-27T02:45:40;27.85;;;7.20;;
61017;SDS011;48171;51.550;5.434;2023-05-27T02:48:05;26.80;;;7.05;;
61017;SDS011;48171;51.550;5.434;2023-05-27T02:50:30;33.63;;;7.45;;
61017;SDS011;48171;51.550;5.434;2023-05-27T02:52:56;23.75;;;5.88;;
61017;SDS011;48171;51.550;5.434;2023-05-27T02:55:21;31.58;;;6.45;;
61017;SDS011;48171;51.550;5.434;2023-05-27T02:57:46;28.65;;;7.05;;
61017;SDS011;48171;51.550;5.434;2023-05-27T03:00:12;24.58;;;6.07;;
61017;SDS011;48171;51.550;5.434;2023-05-27T03:02:38;20.23;;;6.13;;
61017;SDS011;48171;51.550;5.434;2023-05-27T03:05:04;23.75;;;6.68;;
61017;SDS011;48171;51.550;5.434;2023-05-27T03:07:30;25.85;;;6.13;;
61017;SDS011;48171;51.550;5.434;2023-05-27T03:09:55;28.23;;;6.80;;
61017;SDS011;48171;51.550;5.434;2023-05-27T03:12:21;34.85;;;6.53;;
61017;SDS011;48171;51.550;5.434;2023-05-27T03:14:47;35.30;;;6.95;;
61017;SDS011;48171;51.550;5.434;2023-05-27T03:17:12;26.73;;;6.07;;
61017;SDS011;48171;51.550;5.434;2023-05-27T03:19:37;28.55;;;6.93;;
61017;SDS011;48171;51.550;5.434;2023-05-27T03:22:03;32.50;;;7.10;;
61017;SDS011;48171;51.550;5.434;2023-05-27T03:24:28;35.92;;;7.13;;
61017;SDS011;48171;51.550;5.434;2023-05-27T03:26:54;31.08;;;6.65;;
61017;SDS011;48171;51.550;5.434;2023-05-27T03:29:19;25.25;;;6.22;;
61017;SDS011;48171;51.550;5.434;2023-05-27T03:31:45;27.92;;;7.18;;
61017;SDS011;48171;51.550;5.434;2023-05-27T03:34:10;22.55;;;6.45;;
61017;SDS011;48171;51.550;5.434;2023-05-27T03:36:35;25.73;;;6.70;;
61017;SDS011;48171;51.550;5.434;2023-05-27T03:39:02;25.90;;;7.30;;
61017;SDS011;48171;51.550;5.434;2023-05-27T03:41:29;25.67;;;6.57;;
61017;SDS011;48171;51.550;5.434;2023-05-27T03:43:57;26.55;;;6.47;;
61017;SDS011;48171;51.550;5.434;2023-05-27T03:46:23;39.58;;;7.68;;
61017;SDS011;48171;51.550;5.434;2023-05-27T03:48:48;28.92;;;6.20;;
61017;SDS011;48171;51.550;5.434;2023-05-27T03:51:13;33.28;;;7.55;;
61017;SDS011;48171;51.550;5.434;2023-05-27T03:53:39;32.08;;;7.40;;
61017;SDS011;48171;51.550;5.434;2023-05-27T03:56:04;28.58;;;7.40;;
61017;SDS011;48171;51.550;5.434;2023-05-27T03:58:30;26.23;;;7.35;;
61017;SDS011;48171;51.550;5.434;2023-05-27T04:00:55;36.97;;;7.45;;
61017;SDS011;48171;51.550;5.434;2023-05-27T04:03:20;26.00;;;7.20;;
61017;SDS011;48171;51.550;5.434;2023-05-27T04:05:46;31.50;;;7.45;;
61017;SDS011;48171;51.550;5.434;2023-05-27T04:08:11;33.38;;;7.28;;
61017;SDS011;48171;51.550;5.434;2023-05-27T04:10:38;30.15;;;7.45;;
61017;SDS011;48171;51.550;5.434;2023-05-27T04:13:03;33.90;;;8.27;;
61017;SDS011;48171;51.550;5.434;2023-05-27T04:15:29;30.55;;;7.72;;
61017;SDS011;48171;51.550;5.434;2023-05-27T04:17:54;21.95;;;6.68;;
61017;SDS011;48171;51.550;5.434;2023-05-27T04:20:19;27.67;;;7.40;;
61017;SDS011;48171;51.550;5.434;2023-05-27T04:22:45;31.55;;;6.95;;
61017;SDS011;48171;51.550;5.434;2023-05-27T04:25:10;29.90;;;7.03;;
61017;SDS011;48171;51.550;5.434;2023-05-27T04:27:35;33.70;;;8.20;;
61017;SDS011;48171;51.550;5.434;2023-05-27T04:30:04;26.92;;;7.28;;
61017;SDS011;48171;51.550;5.434;2023-05-27T04:32:30;30.08;;;7.65;;
61017;SDS011;48171;51.550;5.434;2023-05-27T04:35:06;33.95;;;7.35;;
61017;SDS011;48171;51.550;5.434;2023-05-27T04:37:36;30.83;;;8.23;;
61017;SDS011;48171;51.550;5.434;2023-05-27T04:40:05;29.35;;;7.47;;
61017;SDS011;48171;51.550;5.434;2023-05-27T04:42:33;28.50;;;7.05;;
61017;SDS011;48171;51.550;5.434;2023-05-27T04:45:01;24.67;;;7.78;;
61017;SDS011;48171;51.550;5.434;2023-05-27T04:47:27;35.33;;;7.13;;
61017;SDS011;48171;51.550;5.434;2023-05-27T04:49:53;35.20;;;8.35;;
61017;SDS011;48171;51.550;5.434;2023-05-27T04:52:19;37.38;;;7.28;;
61017;SDS011;48171;51.550;5.434;2023-05-27T04:54:46;26.23;;;7.03;;
61017;SDS011;48171;51.550;5.434;2023-05-27T04:57:12;31.00;;;8.30;;
61017;SDS011;48171;51.550;5.434;2023-05-27T04:59:38;28.25;;;7.78;;
61017;SDS011;48171;51.550;5.434;2023-05-27T05:02:23;27.58;;;7.47;;
61017;SDS011;48171;51.550;5.434;2023-05-27T05:04:52;33.60;;;8.10;;
61017;SDS011;48171;51.550;5.434;2023-05-27T05:07:17;25.42;;;7.28;;
61017;SDS011;48171;51.550;5.434;2023-05-27T05:09:44;29.10;;;7.47;;
61017;SDS011;48171;51.550;5.434;2023-05-27T05:12:10;31.75;;;7.47;;
61017;SDS011;48171;51.550;5.434;2023-05-27T05:14:35;28.33;;;7.25;;
61017;SDS011;48171;51.550;5.434;2023-05-27T05:17:00;32.95;;;7.03;;
61017;SDS011;48171;51.550;5.434;2023-05-27T05:19:25;28.33;;;8.38;;
61017;SDS011;48171;51.550;5.434;2023-05-27T05:21:51;27.77;;;8.20;;
61017;SDS011;48171;51.550;5.434;2023-05-27T05:24:16;27.33;;;7.13;;
61017;SDS011;48171;51.550;5.434;2023-05-27T05:26:41;34.17;;;7.40;;
61017;SDS011;48171;51.550;5.434;2023-05-27T05:29:09;28.42;;;7.53;;
61017;SDS011;48171;51.550;5.434;2023-05-27T05:31:34;27.23;;;7.35;;
61017;SDS011;48171;51.550;5.434;2023-05-27T05:33:59;26.98;;;8.02;;
61017;SDS011;48171;51.550;5.434;2023-05-27T05:36:25;28.67;;;7.15;;
61017;SDS011;48171;51.550;5.434;2023-05-27T05:38:50;28.27;;;7.65;;
61017;SDS011;48171;51.550;5.434;2023-05-27T05:41:16;25.88;;;7.88;;
61017;SDS011;48171;51.550;5.434;2023-05-27T05:43:41;27.13;;;7.03;;
61017;SDS011;48171;51.550;5.434;2023-05-27T05:46:06;18.48;;;6.72;;
61017;SDS011;48171;51.550;5.434;2023-05-27T05:48:32;25.60;;;7.20;;
61017;SDS011;48171;51.550;5.434;2023-05-27T05:50:57;24.90;;;6.45;;
61017;SDS011;48171;51.550;5.434;2023-05-27T05:53:22;23.67;;;7.50;;
61017;SDS011;48171;51.550;5.434;2023-05-27T05:55:48;28.83;;;7.47;;
61017;SDS011;48171;51.550;5.434;2023-05-27T05:58:13;31.17;;;7.05;;
61017;SDS011;48171;51.550;5.434;2023-05-27T06:00:38;26.25;;;7.45;;
61017;SDS011;48171;51.550;5.434;2023-05-27T06:03:04;28.27;;;7.22;;
61017;SDS011;48171;51.550;5.434;2023-05-27T06:05:29;21.55;;;6.63;;
61017;SDS011;48171;51.550;5.434;2023-05-27T06:07:54;24.38;;;7.03;;
61017;SDS011;48171;51.550;5.434;2023-05-27T06:10:19;23.55;;;7.07;;
61017;SDS011;48171;51.550;5.434;2023-05-27T06:12:45;32.30;;;8.60;;
61017;SDS011;48171;51.550;5.434;2023-05-27T06:15:10;23.30;;;6.85;;
61017;SDS011;48171;51.550;5.434;2023-05-27T06:17:35;27.73;;;7.63;;
61017;SDS011;48171;51.550;5.434;2023-05-27T06:20:01;27.02;;;7.18;;
61017;SDS011;48171;51.550;5.434;2023-05-27T06:22:26;20.50;;;7.18;;
61017;SDS011;48171;51.550;5.434;2023-05-27T06:24:52;18.73;;;7.00;;
61017;SDS011;48171;51.550;5.434;2023-05-27T06:27:17;24.02;;;6.93;;
61017;SDS011;48171;51.550;5.434;2023-05-27T06:29:42;24.73;;;7.30;;
61017;SDS011;48171;51.550;5.434;2023-05-27T06:32:09;19.52;;;6.80;;
61017;SDS011;48171;51.550;5.434;2023-05-27T06:34:34;27.13;;;7.10;;
61017;SDS011;48171;51.550;5.434;2023-05-27T06:37:00;23.23;;;7.13;;
61017;SDS011;48171;51.550;5.434;2023-05-27T06:39:25;24.05;;;7.95;;
61017;SDS011;48171;51.550;5.434;2023-05-27T06:41:50;25.05;;;7.05;;
61017;SDS011;48171;51.550;5.434;2023-05-27T06:44:15;26.20;;;7.70;;
61017;SDS011;48171;51.550;5.434;2023-05-27T06:46:41;26.08;;;7.75;;
61017;SDS011;48171;51.550;5.434;2023-05-27T06:49:06;30.45;;;7.00;;
61017;SDS011;48171;51.550;5.434;2023-05-27T06:51:31;21.25;;;7.60;;
61017;SDS011;48171;51.550;5.434;2023-05-27T06:53:57;23.00;;;7.40;;
61017;SDS011;48171;51.550;5.434;2023-05-27T06:56:22;20.15;;;7.20;;
61017;SDS011;48171;51.550;5.434;2023-05-27T06:58:47;23.88;;;7.43;;
61017;SDS011;48171;51.550;5.434;2023-05-27T07:01:12;31.00;;;8.35;;
61017;SDS011;48171;51.550;5.434;2023-05-27T07:03:38;24.80;;;7.63;;
61017;SDS011;48171;51.550;5.434;2023-05-27T07:06:03;27.27;;;7.85;;
61017;SDS011;48171;51.550;5.434;2023-05-27T07:08:29;27.05;;;8.05;;
61017;SDS011;48171;51.550;5.434;2023-05-27T07:10:54;25.88;;;7.95;;
61017;SDS011;48171;51.550;5.434;2023-05-27T07:13:20;23.42;;;7.97;;
61017;SDS011;48171;51.550;5.434;2023-05-27T07:15:45;31.35;;;8.48;;
61017;SDS011;48171;51.550;5.434;2023-05-27T07:18:10;24.15;;;8.05;;
61017;SDS011;48171;51.550;5.434;2023-05-27T07:20:35;29.55;;;8.43;;
61017;SDS011;48171;51.550;5.434;2023-05-27T07:23:01;27.88;;;8.98;;
61017;SDS011;48171;51.550;5.434;2023-05-27T07:25:26;23.75;;;8.85;;
61017;SDS011;48171;51.550;5.434;2023-05-27T07:27:52;29.90;;;8.57;;
61017;SDS011;48171;51.550;5.434;2023-05-27T07:30:17;24.42;;;8.70;;
61017;SDS011;48171;51.550;5.434;2023-05-27T07:32:42;26.92;;;8.88;;
61017;SDS011;48171;51.550;5.434;2023-05-27T07:35:08;31.60;;;9.07;;
61017;SDS011;48171;51.550;5.434;2023-05-27T07:37:34;24.98;;;8.10;;
61017;SDS011;48171;51.550;5.434;2023-05-27T07:39:59;29.40;;;8.45;;
61017;SDS011;48171;51.550;5.434;2023-05-27T07:42:24;26.42;;;8.10;;
61017;SDS011;48171;51.550;5.434;2023-05-27T07:44:49;24.90;;;8.38;;
61017;SDS011;48171;51.550;5.434;2023-05-27T07:47:15;29.08;;;8.05;;
61017;SDS011;48171;51.550;5.434;2023-05-27T07:49:40;27.40;;;9.25;;
61017;SDS011;48171;51.550;5.434;2023-05-27T07:52:06;21.73;;;8.23;;
61017;SDS011;48171;51.550;5.434;2023-05-27T07:54:32;27.65;;;9.10;;
61017;SDS011;48171;51.550;5.434;2023-05-27T07:56:57;28.35;;;9.35;;
61017;SDS011;48171;51.550;5.434;2023-05-27T07:59:23;34.38;;;9.27;;
61017;SDS011;48171;51.550;5.434;2023-05-27T08:01:48;28.42;;;9.65;;
61017;SDS011;48171;51.550;5.434;2023-05-27T08:04:13;32.67;;;9.77;;
61017;SDS011;48171;51.550;5.434;2023-05-27T08:06:39;29.33;;;9.57;;
61017;SDS011;48171;51.550;5.434;2023-05-27T08:09:04;34.28;;;9.52;;
61017;SDS011;48171;51.550;5.434;2023-05-27T08:11:31;23.52;;;9.25;;
61017;SDS011;48171;51.550;5.434;2023-05-27T08:13:57;25.48;;;8.95;;
61017;SDS011;48171;51.550;5.434;2023-05-27T08:16:22;25.60;;;9.50;;
61017;SDS011;48171;51.550;5.434;2023-05-27T08:18:47;27.20;;;8.65;;
61017;SDS011;48171;51.550;5.434;2023-05-27T08:21:13;31.77;;;10.10;;
61017;SDS011;48171;51.550;5.434;2023-05-27T08:23:38;31.60;;;9.55;;
61017;SDS011;48171;51.550;5.434;2023-05-27T08:26:03;29.17;;;9.80;;
61017;SDS011;48171;51.550;5.434;2023-05-27T08:28:29;38.55;;;11.40;;
61017;SDS011;48171;51.550;5.434;2023-05-27T08:30:54;32.70;;;9.48;;
61017;SDS011;48171;51.550;5.434;2023-05-27T08:33:19;31.00;;;10.00;;
61017;SDS011;48171;51.550;5.434;2023-05-27T08:35:45;27.75;;;9.05;;
61017;SDS011;48171;51.550;5.434;2023-05-27T08:38:11;34.15;;;9.63;;
61017;SDS011;48171;51.550;5.434;2023-05-27T08:40:37;27.25;;;9.50;;
61017;SDS011;48171;51.550;5.434;2023-05-27T08:43:03;38.33;;;10.75;;
61017;SDS011;48171;51.550;5.434;2023-05-27T08:45:30;29.08;;;9.18;;
61017;SDS011;48171;51.550;5.434;2023-05-27T08:47:56;34.33;;;10.95;;
61017;SDS011;48171;51.550;5.434;2023-05-27T08:50:22;27.00;;;9.45;;
61017;SDS011;48171;51.550;5.434;2023-05-27T08:52:48;32.90;;;10.25;;
61017;SDS011;48171;51.550;5.434;2023-05-27T08:57:46;28.85;;;9.98;;
61017;SDS011;48171;51.550;5.434;2023-05-27T09:02:42;27.85;;;8.35;;
61017;SDS011;48171;51.550;5.434;2023-05-27T09:05:08;31.10;;;9.57;;
61017;SDS011;48171;51.550;5.434;2023-05-27T09:07:34;25.38;;;9.18;;
61017;SDS011;48171;51.550;5.434;2023-05-27T09:10:00;33.75;;;10.07;;
61017;SDS011;48171;51.550;5.434;2023-05-27T09:12:26;39.42;;;10.73;;
61017;SDS011;48171;51.550;5.434;2023-05-27T09:14:52;34.88;;;8.88;;
61017;SDS011;48171;51.550;5.434;2023-05-27T09:17:19;30.25;;;9.13;;
61017;SDS011;48171;51.550;5.434;2023-05-27T09:19:47;27.30;;;8.52;;
61017;SDS011;48171;51.550;5.434;2023-05-27T09:22:31;29.08;;;9.65;;
61017;SDS011;48171;51.550;5.434;2023-05-27T09:24:56;37.90;;;9.82;;
61017;SDS011;48171;51.550;5.434;2023-05-27T09:27:26;23.45;;;9.02;;
61017;SDS011;48171;51.550;5.434;2023-05-27T09:29:52;29.25;;;9.57;;
61017;SDS011;48171;51.550;5.434;2023-05-27T09:32:27;35.15;;;10.80;;
61017;SDS011;48171;51.550;5.434;2023-05-27T09:34:56;28.00;;;10.70;;
61017;SDS011;48171;51.550;5.434;2023-05-27T09:37:25;35.35;;;11.00;;
61017;SDS011;48171;51.550;5.434;2023-05-27T09:39:56;24.38;;;8.68;;
61017;SDS011;48171;51.550;5.434;2023-05-27T09:42:22;23.33;;;7.65;;
61017;SDS011;48171;51.550;5.434;2023-05-27T09:44:48;27.52;;;8.00;;
61017;SDS011;48171;51.550;5.434;2023-05-27T09:47:15;30.88;;;8.30;;
61017;SDS011;48171;51.550;5.434;2023-05-27T09:49:42;31.40;;;9.18;;
61017;SDS011;48171;51.550;5.434;2023-05-27T09:52:09;29.20;;;8.98;;
61017;SDS011;48171;51.550;5.434;2023-05-27T09:54:35;34.20;;;9.73;;
61017;SDS011;48171;51.550;5.434;2023-05-27T09:57:02;32.85;;;9.57;;
61017;SDS011;48171;51.550;5.434;2023-05-27T09:59:30;29.38;;;9.45;;
61017;SDS011;48171;51.550;5.434;2023-05-27T10:01:56;32.55;;;9.80;;
61017;SDS011;48171;51.550;5.434;2023-05-27T10:04:25;36.25;;;9.93;;
61017;SDS011;48171;51.550;5.434;2023-05-27T10:06:50;31.27;;;9.73;;
61017;SDS011;48171;51.550;5.434;2023-05-27T10:09:17;32.65;;;9.25;;
61017;SDS011;48171;51.550;5.434;2023-05-27T10:11:43;35.15;;;9.55;;
61017;SDS011;48171;51.550;5.434;2023-05-27T10:14:09;24.95;;;8.05;;
61017;SDS011;48171;51.550;5.434;2023-05-27T10:16:36;26.83;;;8.98;;
61017;SDS011;48171;51.550;5.434;2023-05-27T10:19:02;27.15;;;8.57;;
61017;SDS011;48171;51.550;5.434;2023-05-27T10:21:28;32.38;;;8.75;;
61017;SDS011;48171;51.550;5.434;2023-05-27T10:23:59;31.25;;;8.43;;
61017;SDS011;48171;51.550;5.434;2023-05-27T10:26:33;30.02;;;8.80;;
61017;SDS011;48171;51.550;5.434;2023-05-27T10:31:33;25.98;;;8.25;;
61017;SDS011;48171;51.550;5.434;2023-05-27T10:33:58;27.08;;;8.52;;
61017;SDS011;48171;51.550;5.434;2023-05-27T10:36:26;29.73;;;9.10;;
61017;SDS011;48171;51.550;5.434;2023-05-27T10:39:02;32.08;;;9.45;;
61017;SDS011;48171;51.550;5.434;2023-05-27T10:41:42;29.08;;;9.45;;
61017;SDS011;48171;51.550;5.434;2023-05-27T10:44:25;23.67;;;8.02;;
61017;SDS011;48171;51.550;5.434;2023-05-27T10:47:04;24.85;;;7.93;;
61017;SDS011;48171;51.550;5.434;2023-05-27T10:49:36;30.65;;;8.82;;
61017;SDS011;48171;51.550;5.434;2023-05-27T10:52:06;33.08;;;8.70;;
61017;SDS011;48171;51.550;5.434;2023-05-27T10:54:39;30.02;;;7.97;;
61017;SDS011;48171;51.550;5.434;2023-05-27T10:57:06;32.13;;;7.93;;
61017;SDS011;48171;51.550;5.434;2023-05-27T10:59:48;25.83;;;7.53;;
61017;SDS011;48171;51.550;5.434;2023-05-27T11:02:18;31.77;;;8.88;;
61017;SDS011;48171;51.550;5.434;2023-05-27T11:04:44;30.67;;;8.40;;
61017;SDS011;48171;51.550;5.434;2023-05-27T11:07:10;27.23;;;7.75;;
61017;SDS011;48171;51.550;5.434;2023-05-27T11:09:48;27.33;;;7.63;;
61017;SDS011;48171;51.550;5.434;2023-05-27T11:12:18;21.17;;;6.88;;
61017;SDS011;48171;51.550;5.434;2023-05-27T11:14:54;28.40;;;7.20;;
61017;SDS011;48171;51.550;5.434;2023-05-27T11:17:20;26.27;;;8.13;;
61017;SDS011;48171;51.550;5.434;2023-05-27T11:19:47;23.95;;;6.78;;
61017;SDS011;48171;51.550;5.434;2023-05-27T11:22:13;19.75;;;6.53;;
61017;SDS011;48171;51.550;5.434;2023-05-27T11:24:39;26.80;;;7.70;;
61017;SDS011;48171;51.550;5.434;2023-05-27T11:27:08;20.67;;;5.93;;
61017;SDS011;48171;51.550;5.434;2023-05-27T11:29:34;20.17;;;5.85;;
61017;SDS011;48171;51.550;5.434;2023-05-27T11:32:00;21.17;;;5.50;;
61017;SDS011;48171;51.550;5.434;2023-05-27T11:34:27;19.10;;;5.55;;
61017;SDS011;48171;51.550;5.434;2023-05-27T11:36:52;17.95;;;5.75;;
61017;SDS011;48171;51.550;5.434;2023-05-27T11:39:18;20.30;;;6.22;;
61017;SDS011;48171;51.550;5.434;2023-05-27T11:41:51;25.02;;;6.10;;
61017;SDS011;48171;51.550;5.434;2023-05-27T11:44:18;20.75;;;6.78;;
61017;SDS011;48171;51.550;5.434;2023-05-27T11:46:45;26.35;;;7.22;;
61017;SDS011;48171;51.550;5.434;2023-05-27T11:49:12;24.25;;;7.20;;
61017;SDS011;48171;51.550;5.434;2023-05-27T11:51:56;22.58;;;6.22;;
61017;SDS011;48171;51.550;5.434;2023-05-27T11:54:27;19.05;;;6.30;;
61017;SDS011;48171;51.550;5.434;2023-05-27T11:56:58;19.38;;;6.88;;
61017;SDS011;48171;51.550;5.434;2023-05-27T11:59:24;22.83;;;6.47;;
61017;SDS011;48171;51.550;5.434;2023-05-27T12:01:50;26.88;;;6.60;;
61017;SDS011;48171;51.550;5.434;2023-05-27T12:04:16;25.63;;;7.63;;
61017;SDS011;48171;51.550;5.434;2023-05-27T12:06:42;26.98;;;6.85;;
61017;SDS011;48171;51.550;5.434;2023-05-27T12:09:09;19.20;;;6.15;;
61017;SDS011;48171;51.550;5.434;2023-05-27T12:11:35;19.92;;;6.28;;
61017;SDS011;48171;51.550;5.434;2023-05-27T12:14:01;22.73;;;5.90;;
61017;SDS011;48171;51.550;5.434;2023-05-27T12:16:27;23.58;;;6.40;;
61017;SDS011;48171;51.550;5.434;2023-05-27T12:18:52;23.50;;;6.28;;
61017;SDS011;48171;51.550;5.434;2023-05-27T12:21:18;19.85;;;6.05;;
61017;SDS011;48171;51.550;5.434;2023-05-27T12:23:44;22.40;;;6.10;;
61017;SDS011;48171;51.550;5.434;2023-05-27T12:26:11;21.80;;;5.93;;
61017;SDS011;48171;51.550;5.434;2023-05-27T12:28:38;22.52;;;6.40;;
61017;SDS011;48171;51.550;5.434;2023-05-27T12:31:03;26.55;;;6.60;;
61017;SDS011;48171;51.550;5.434;2023-05-27T12:33:29;21.55;;;6.35;;
61017;SDS011;48171;51.550;5.434;2023-05-27T12:35:55;28.75;;;6.88;;
61017;SDS011;48171;51.550;5.434;2023-05-27T12:38:21;25.83;;;6.25;;
61017;SDS011;48171;51.550;5.434;2023-05-27T12:40:47;27.35;;;6.20;;
61017;SDS011;48171;51.550;5.434;2023-05-27T12:43:13;21.33;;;6.70;;
61017;SDS011;48171;51.550;5.434;2023-05-27T12:45:39;29.73;;;6.68;;
61017;SDS011;48171;51.550;5.434;2023-05-27T12:48:04;22.23;;;6.85;;
61017;SDS011;48171;51.550;5.434;2023-05-27T12:50:29;19.08;;;6.20;;
61017;SDS011;48171;51.550;5.434;2023-05-27T12:52:55;26.08;;;6.35;;
61017;SDS011;48171;51.550;5.434;2023-05-27T12:55:20;24.38;;;6.78;;
61017;SDS011;48171;51.550;5.434;2023-05-27T12:57:49;25.60;;;6.78;;
61017;SDS011;48171;51.550;5.434;2023-05-27T13:00:15;19.25;;;6.30;;
61017;SDS011;48171;51.550;5.434;2023-05-27T13:02:44;26.33;;;6.57;;
61017;SDS011;48171;51.550;5.434;2023-05-27T13:05:11;23.20;;;6.13;;
61017;SDS011;48171;51.550;5.434;2023-05-27T13:07:36;19.50;;;6.57;;
61017;SDS011;48171;51.550;5.434;2023-05-27T13:10:04;22.98;;;6.45;;
61017;SDS011;48171;51.550;5.434;2023-05-27T13:12:32;26.83;;;7.65;;
61017;SDS011;48171;51.550;5.434;2023-05-27T13:14:59;28.95;;;7.50;;
61017;SDS011;48171;51.550;5.434;2023-05-27T13:17:26;22.33;;;6.20;;
61017;SDS011;48171;51.550;5.434;2023-05-27T13:19:52;19.27;;;5.82;;
61017;SDS011;48171;51.550;5.434;2023-05-27T13:22:17;24.15;;;6.20;;
61017;SDS011;48171;51.550;5.434;2023-05-27T13:24:42;26.38;;;7.63;;
61017;SDS011;48171;51.550;5.434;2023-05-27T13:27:08;23.23;;;6.40;;
61017;SDS011;48171;51.550;5.434;2023-05-27T13:29:34;19.30;;;6.20;;
61017;SDS011;48171;51.550;5.434;2023-05-27T13:32:00;17.95;;;5.70;;
61017;SDS011;48171;51.550;5.434;2023-05-27T13:34:25;19.02;;;5.63;;
61017;SDS011;48171;51.550;5.434;2023-05-27T13:36:53;22.25;;;6.88;;
61017;SDS011;48171;51.550;5.434;2023-05-27T13:39:18;17.92;;;6.13;;
61017;SDS011;48171;51.550;5.434;2023-05-27T13:41:43;21.15;;;6.00;;
61017;SDS011;48171;51.550;5.434;2023-05-27T13:44:08;17.85;;;5.80;;
61017;SDS011;48171;51.550;5.434;2023-05-27T13:46:34;18.98;;;5.82;;
61017;SDS011;48171;51.550;5.434;2023-05-27T13:48:59;22.55;;;6.25;;
61017;SDS011;48171;51.550;5.434;2023-05-27T13:51:24;31.63;;;5.97;;
61017;SDS011;48171;51.550;5.434;2023-05-27T13:53:50;25.15;;;6.85;;
61017;SDS011;48171;51.550;5.434;2023-05-27T13:56:15;18.52;;;6.22;;
61017;SDS011;48171;51.550;5.434;2023-05-27T13:58:40;19.88;;;6.05;;
61017;SDS011;48171;51.550;5.434;2023-05-27T14:01:06;20.48;;;5.55;;
61017;SDS011;48171;51.550;5.434;2023-05-27T14:03:31;24.10;;;6.03;;
61017;SDS011;48171;51.550;5.434;2023-05-27T14:05:56;22.85;;;6.25;;
61017;SDS011;48171;51.550;5.434;2023-05-27T14:08:22;25.73;;;6.28;;
61017;SDS011;48171;51.550;5.434;2023-05-27T14:10:47;21.48;;;6.53;;
61017;SDS011;48171;51.550;5.434;2023-05-27T14:13:13;21.70;;;6.32;;
61017;SDS011;48171;51.550;5.434;2023-05-27T14:15:38;21.63;;;5.90;;
61017;SDS011;48171;51.550;5.434;2023-05-27T14:18:04;20.23;;;6.15;;
61017;SDS011;48171;51.550;5.434;2023-05-27T14:20:30;34.35;;;7.75;;
61017;SDS011;48171;51.550;5.434;2023-05-27T14:22:56;20.40;;;6.32;;
61017;SDS011;48171;51.550;5.434;2023-05-27T14:25:23;28.33;;;7.13;;
61017;SDS011;48171;51.550;5.434;2023-05-27T14:27:49;28.60;;;7.32;;
61017;SDS011;48171;51.550;5.434;2023-05-27T14:30:14;20.67;;;6.75;;
61017;SDS011;48171;51.550;5.434;2023-05-27T14:32:40;44.05;;;10.82;;
61017;SDS011;48171;51.550;5.434;2023-05-27T14:35:06;23.38;;;7.07;;
61017;SDS011;48171;51.550;5.434;2023-05-27T14:37:32;20.88;;;6.97;;
61017;SDS011;48171;51.550;5.434;2023-05-27T14:39:57;26.88;;;7.20;;
61017;SDS011;48171;51.550;5.434;2023-05-27T14:42:22;26.38;;;7.47;;
61017;SDS011;48171;51.550;5.434;2023-05-27T14:44:47;24.98;;;6.57;;
61017;SDS011;48171;51.550;5.434;2023-05-27T14:47:13;22.88;;;6.78;;
61017;SDS011;48171;51.550;5.434;2023-05-27T14:49:38;19.70;;;6.70;;